sensor_id;sensor_type;location;lat;lon;timestamp;pressure;altitude;pressure_sealevel;temperature;humidity
63090;BME280;49174;43.198;27.824;2023-05-20T00:00:27;101633.91;;;17.61;67.91
63090;BME280;49174;43.198;27.824;2023-05-20T00:02:54;101637.94;;;17.59;67.41
63090;BME280;49174;43.198;27.824;2023-05-20T00:05:19;101636.69;;;17.55;67.46
63090;BME280;49174;43.198;27.824;2023-05-20T00:07:45;101636.53;;;17.50;67.27
63090;BME280;49174;43.198;27.824;2023-05-20T00:10:11;101627.75;;;17.41;66.65
63090;BME280;49174;43.198;27.824;2023-05-20T00:12:37;101637.66;;;17.35;70.67
63090;BME280;49174;43.198;27.824;2023-05-20T00:15:03;101636.00;;;17.34;69.90
63090;BME280;49174;43.198;27.824;2023-05-20T00:17:29;101641.41;;;17.41;71.87
63090;BME280;49174;43.198;27.824;2023-05-20T00:19:55;101638.66;;;17.41;70.77
63090;BME280;49174;43.198;27.824;2023-05-20T00:22:20;101635.28;;;17.46;72.60
63090;BME280;49174;43.198;27.824;2023-05-20T00:24:46;101633.63;;;17.45;72.27
63090;BME280;49174;43.198;27.824;2023-05-20T00:27:11;101635.34;;;17.39;72.53
63090;BME280;49174;43.198;27.824;2023-05-20T00:29:37;101633.91;;;17.36;73.62
63090;BME280;49174;43.198;27.824;2023-05-20T00:32:03;101628.25;;;17.31;72.63
63090;BME280;49174;43.198;27.824;2023-05-20T00:34:28;101632.06;;;17.30;72.18
63090;BME280;49174;43.198;27.824;2023-05-20T00:36:54;101633.09;;;17.29;72.58
63090;BME280;49174;43.198;27.824;2023-05-20T00:39:19;101634.78;;;17.30;72.85
63090;BME280;49174;43.198;27.824;2023-05-20T00:41:45;101630.19;;;17.24;72.88
63090;BME280;49174;43.198;27.824;2023-05-20T00:44:10;101622.41;;;17.28;72.75
63090;BME280;49174;43.198;27.824;2023-05-20T00:46:36;101619.63;;;17.34;72.21
63090;BME280;49174;43.198;27.824;2023-05-20T00:49:02;101625.72;;;17.36;72.23
63090;BME280;49174;43.198;27.824;2023-05-20T00:51:27;101617.34;;;17.31;71.57
63090;BME280;49174;43.198;27.824;2023-05-20T00:53:54;101619.63;;;17.34;72.63
63090;BME280;49174;43.198;27.824;2023-05-20T00:56:21;101624.25;;;17.34;73.02
63090;BME280;49174;43.198;27.824;2023-05-20T00:58:48;101617.34;;;17.31;70.42
63090;BME280;49174;43.198;27.824;2023-05-20T01:01:14;101617.72;;;17.35;71.11
63090;BME280;49174;43.198;27.824;2023-05-20T01:03:39;101614.81;;;17.36;71.56
63090;BME280;49174;43.198;27.824;2023-05-20T01:06:05;101607.66;;;17.35;71.64
63090;BME280;49174;43.198;27.824;2023-05-20T01:08:31;101604.09;;;17.35;70.96
63090;BME280;49174;43.198;27.824;2023-05-20T01:11:06;101596.75;;;17.35;70.89
63090;BME280;49174;43.198;27.824;2023-05-20T01:13:38;101612.50;;;17.33;71.68
63090;BME280;49174;43.198;27.824;2023-05-20T01:16:07;101609.34;;;17.36;70.99
63090;BME280;49174;43.198;27.824;2023-05-20T01:18:35;101607.88;;;17.34;71.54
63090;BME280;49174;43.198;27.824;2023-05-20T01:21:01;101608.97;;;17.33;70.84
63090;BME280;49174;43.198;27.824;2023-05-20T01:23:37;101605.16;;;17.34;71.89
63090;BME280;49174;43.198;27.824;2023-05-20T01:26:07;101605.78;;;17.36;71.35
63090;BME280;49174;43.198;27.824;2023-05-20T01:28:34;101608.50;;;17.36;70.48
63090;BME280;49174;43.198;27.824;2023-05-20T01:31:03;101601.78;;;17.38;71.40
63090;BME280;49174;43.198;27.824;2023-05-20T01:33:30;101606.00;;;17.34;70.07
63090;BME280;49174;43.198;27.824;2023-05-20T01:35:59;101598.25;;;17.31;69.87
63090;BME280;49174;43.198;27.824;2023-05-20T01:38:25;101602.00;;;17.37;70.28
63090;BME280;49174;43.198;27.824;2023-05-20T01:40:52;101600.53;;;17.34;70.73
63090;BME280;49174;43.198;27.824;2023-05-20T01:43:18;101601.81;;;17.32;70.92
63090;BME280;49174;43.198;27.824;2023-05-20T01:45:45;101604.53;;;17.32;71.00
63090;BME280;49174;43.198;27.824;2023-05-20T01:48:11;101612.34;;;17.28;71.35
63090;BME280;49174;43.198;27.824;2023-05-20T01:50:37;101613.56;;;17.32;72.25
63090;BME280;49174;43.198;27.824;2023-05-20T01:53:03;101622.34;;;17.34;72.46
63090;BME280;49174;43.198;27.824;2023-05-20T01:55:28;101606.91;;;17.22;71.38
63090;BME280;49174;43.198;27.824;2023-05-20T01:57:54;101608.59;;;17.23;72.54
63090;BME280;49174;43.198;27.824;2023-05-20T02:00:20;101615.50;;;17.25;71.95
63090;BME280;49174;43.198;27.824;2023-05-20T02:02:45;101616.16;;;17.20;71.90
63090;BME280;49174;43.198;27.824;2023-05-20T02:05:11;101611.34;;;17.16;71.64
63090;BME280;49174;43.198;27.824;2023-05-20T02:07:36;101617.59;;;17.23;72.10
63090;BME280;49174;43.198;27.824;2023-05-20T02:10:02;101618.81;;;17.27;72.35
63090;BME280;49174;43.198;27.824;2023-05-20T02:12:28;101623.91;;;17.24;72.30
63090;BME280;49174;43.198;27.824;2023-05-20T02:14:53;101623.50;;;17.20;72.87
63090;BME280;49174;43.198;27.824;2023-05-20T02:17:20;101616.22;;;17.14;72.99
63090;BME280;49174;43.198;27.824;2023-05-20T02:19:45;101620.03;;;17.06;73.36
63090;BME280;49174;43.198;27.824;2023-05-20T02:22:11;101627.81;;;17.03;73.56
63090;BME280;49174;43.198;27.824;2023-05-20T02:24:37;101633.91;;;16.98;74.47
63090;BME280;49174;43.198;27.824;2023-05-20T02:27:03;101641.25;;;16.97;74.40
63090;BME280;49174;43.198;27.824;2023-05-20T02:29:29;101642.34;;;16.90;75.80
63090;BME280;49174;43.198;27.824;2023-05-20T02:31:55;101632.75;;;16.81;74.95
63090;BME280;49174;43.198;27.824;2023-05-20T02:34:20;101639.03;;;16.81;75.81
63090;BME280;49174;43.198;27.824;2023-05-20T02:36:46;101638.16;;;16.74;75.81
63090;BME280;49174;43.198;27.824;2023-05-20T02:39:11;101631.47;;;16.83;76.10
63090;BME280;49174;43.198;27.824;2023-05-20T02:41:37;101635.06;;;16.77;77.00
63090;BME280;49174;43.198;27.824;2023-05-20T02:44:03;101636.31;;;16.74;76.66
63090;BME280;49174;43.198;27.824;2023-05-20T02:46:30;101641.75;;;16.68;76.90
63090;BME280;49174;43.198;27.824;2023-05-20T02:48:55;101642.44;;;16.63;78.62
63090;BME280;49174;43.198;27.824;2023-05-20T02:51:22;101652.47;;;16.69;77.98
63090;BME280;49174;43.198;27.824;2023-05-20T02:53:48;101653.47;;;16.75;78.68
63090;BME280;49174;43.198;27.824;2023-05-20T02:56:15;101651.81;;;16.81;77.92
63090;BME280;49174;43.198;27.824;2023-05-20T02:58:40;101656.19;;;16.88;77.63
63090;BME280;49174;43.198;27.824;2023-05-20T03:01:06;101654.31;;;16.82;76.39
63090;BME280;49174;43.198;27.824;2023-05-20T03:03:32;101659.50;;;16.90;77.36
63090;BME280;49174;43.198;27.824;2023-05-20T03:05:57;101667.09;;;16.82;78.18
63090;BME280;49174;43.198;27.824;2023-05-20T03:08:23;101672.31;;;16.90;78.23
63090;BME280;49174;43.198;27.824;2023-05-20T03:10:49;101669.97;;;16.93;77.62
63090;BME280;49174;43.198;27.824;2023-05-20T03:13:15;101671.69;;;16.94;77.57
63090;BME280;49174;43.198;27.824;2023-05-20T03:15:41;101679.84;;;16.94;77.65
63090;BME280;49174;43.198;27.824;2023-05-20T03:18:07;101669.97;;;17.00;78.07
63090;BME280;49174;43.198;27.824;2023-05-20T03:20:34;101674.16;;;17.03;77.46
63090;BME280;49174;43.198;27.824;2023-05-20T03:23:06;101674.16;;;17.03;78.38
63090;BME280;49174;43.198;27.824;2023-05-20T03:25:31;101676.00;;;17.09;78.50
63090;BME280;49174;43.198;27.824;2023-05-20T03:27:57;101678.72;;;17.09;78.04
63090;BME280;49174;43.198;27.824;2023-05-20T03:30:26;101670.75;;;17.07;77.48
63090;BME280;49174;43.198;27.824;2023-05-20T03:32:52;101680.84;;;17.07;77.25
63090;BME280;49174;43.198;27.824;2023-05-20T03:35:18;101683.13;;;17.10;78.50
63090;BME280;49174;43.198;27.824;2023-05-20T03:37:43;101679.56;;;17.09;77.64
63090;BME280;49174;43.198;27.824;2023-05-20T03:40:09;101685.41;;;17.13;77.19
63090;BME280;49174;43.198;27.824;2023-05-20T03:42:38;101679.53;;;17.16;77.68
63090;BME280;49174;43.198;27.824;2023-05-20T03:45:04;101682.44;;;17.21;75.90
63090;BME280;49174;43.198;27.824;2023-05-20T03:47:31;101681.16;;;17.24;76.03
63090;BME280;49174;43.198;27.824;2023-05-20T03:49:57;101676.97;;;17.21;75.67
63090;BME280;49174;43.198;27.824;2023-05-20T03:52:22;101674.25;;;17.21;75.81
63090;BME280;49174;43.198;27.824;2023-05-20T03:54:48;101676.72;;;17.29;75.94
63090;BME280;49174;43.198;27.824;2023-05-20T03:57:14;101670.25;;;17.30;74.18
63090;BME280;49174;43.198;27.824;2023-05-20T03:59:39;101658.88;;;17.33;75.41
63090;BME280;49174;43.198;27.824;2023-05-20T04:02:05;101658.25;;;17.31;75.39
63090;BME280;49174;43.198;27.824;2023-05-20T04:04:31;101654.25;;;17.34;74.55
63090;BME280;49174;43.198;27.824;2023-05-20T04:06:57;101658.06;;;17.33;74.09
63090;BME280;49174;43.198;27.824;2023-05-20T04:09:25;101653.59;;;17.38;74.08
63090;BME280;49174;43.198;27.824;2023-05-20T04:11:51;101656.75;;;17.35;74.12
63090;BME280;49174;43.198;27.824;2023-05-20T04:14:18;101652.75;;;17.38;75.60
63090;BME280;49174;43.198;27.824;2023-05-20T04:16:44;101651.72;;;17.39;75.87
63090;BME280;49174;43.198;27.824;2023-05-20T04:19:10;101654.44;;;17.39;74.98
63090;BME280;49174;43.198;27.824;2023-05-20T04:21:35;101654.19;;;17.40;74.94
63090;BME280;49174;43.198;27.824;2023-05-20T04:24:01;101647.53;;;17.36;75.71
63090;BME280;49174;43.198;27.824;2023-05-20T04:26:27;101645.63;;;17.37;76.44
63090;BME280;49174;43.198;27.824;2023-05-20T04:28:53;101648.81;;;17.34;75.92
63090;BME280;49174;43.198;27.824;2023-05-20T04:31:20;101643.13;;;17.35;77.13
63090;BME280;49174;43.198;27.824;2023-05-20T04:33:51;101654.03;;;17.35;78.53
63090;BME280;49174;43.198;27.824;2023-05-20T04:36:17;101647.16;;;17.33;78.16
63090;BME280;49174;43.198;27.824;2023-05-20T04:38:43;101635.38;;;17.32;79.25
63090;BME280;49174;43.198;27.824;2023-05-20T04:41:09;101647.16;;;17.33;79.74
63090;BME280;49174;43.198;27.824;2023-05-20T04:43:35;101645.50;;;17.25;79.23
63090;BME280;49174;43.198;27.824;2023-05-20T04:46:03;101651.41;;;17.22;81.00
63090;BME280;49174;43.198;27.824;2023-05-20T04:48:31;101653.06;;;17.23;81.68
63090;BME280;49174;43.198;27.824;2023-05-20T04:50:56;101666.06;;;17.21;81.37
63090;BME280;49174;43.198;27.824;2023-05-20T04:53:22;101657.69;;;17.16;81.11
63090;BME280;49174;43.198;27.824;2023-05-20T04:55:55;101650.59;;;17.15;81.42
63090;BME280;49174;43.198;27.824;2023-05-20T04:58:21;101656.03;;;17.15;83.48
63090;BME280;49174;43.198;27.824;2023-05-20T05:00:49;101658.16;;;17.13;82.95
63090;BME280;49174;43.198;27.824;2023-05-20T05:03:16;101659.84;;;17.14;82.35
63090;BME280;49174;43.198;27.824;2023-05-20T05:05:42;101660.63;;;17.21;81.80
63090;BME280;49174;43.198;27.824;2023-05-20T05:08:08;101648.03;;;17.20;81.99
63090;BME280;49174;43.198;27.824;2023-05-20T05:10:34;101641.59;;;17.14;81.78
63090;BME280;49174;43.198;27.824;2023-05-20T05:13:00;101630.44;;;17.16;83.39
63090;BME280;49174;43.198;27.824;2023-05-20T05:15:27;101640.13;;;17.12;83.50
63090;BME280;49174;43.198;27.824;2023-05-20T05:17:52;101643.50;;;17.07;84.35
63090;BME280;49174;43.198;27.824;2023-05-20T05:20:18;101639.50;;;17.10;84.90
63090;BME280;49174;43.198;27.824;2023-05-20T05:22:44;101646.22;;;17.07;85.38
63090;BME280;49174;43.198;27.824;2023-05-20T05:25:10;101651.91;;;17.06;86.67
63090;BME280;49174;43.198;27.824;2023-05-20T05:27:36;101653.56;;;17.07;86.31
63090;BME280;49174;43.198;27.824;2023-05-20T05:30:03;101653.56;;;17.07;86.35
63090;BME280;49174;43.198;27.824;2023-05-20T05:32:29;101654.88;;;16.97;85.65
63090;BME280;49174;43.198;27.824;2023-05-20T05:34:55;101654.88;;;16.97;85.34
63090;BME280;49174;43.198;27.824;2023-05-20T05:37:20;101655.66;;;17.05;86.84
63090;BME280;49174;43.198;27.824;2023-05-20T05:39:46;101660.28;;;17.11;87.21
63090;BME280;49174;43.198;27.824;2023-05-20T05:42:12;101654.63;;;17.06;86.60
63090;BME280;49174;43.198;27.824;2023-05-20T05:44:37;101651.53;;;16.95;87.72
63090;BME280;49174;43.198;27.824;2023-05-20T05:47:03;101652.84;;;16.86;87.98
63090;BME280;49174;43.198;27.824;2023-05-20T05:49:31;101641.06;;;16.92;88.23
63090;BME280;49174;43.198;27.824;2023-05-20T05:51:56;101648.00;;;16.88;87.73
63090;BME280;49174;43.198;27.824;2023-05-20T05:54:22;101664.56;;;16.87;88.75
63090;BME280;49174;43.198;27.824;2023-05-20T05:56:49;101664.97;;;16.90;88.96
63090;BME280;49174;43.198;27.824;2023-05-20T05:59:15;101660.97;;;16.93;87.40
63090;BME280;49174;43.198;27.824;2023-05-20T06:01:40;101659.91;;;17.01;87.25
63090;BME280;49174;43.198;27.824;2023-05-20T06:04:06;101657.81;;;17.03;87.76
63090;BME280;49174;43.198;27.824;2023-05-20T06:06:32;101659.06;;;17.00;88.08
63090;BME280;49174;43.198;27.824;2023-05-20T06:08:58;101660.78;;;16.94;87.33
63090;BME280;49174;43.198;27.824;2023-05-20T06:11:23;101666.22;;;16.94;87.30
63090;BME280;49174;43.198;27.824;2023-05-20T06:13:49;101654.88;;;16.97;87.92
63090;BME280;49174;43.198;27.824;2023-05-20T06:16:15;101663.94;;;16.91;87.67
63090;BME280;49174;43.198;27.824;2023-05-20T06:18:41;101654.69;;;16.92;87.40
63090;BME280;49174;43.198;27.824;2023-05-20T06:21:06;101650.31;;;16.91;88.89
63090;BME280;49174;43.198;27.824;2023-05-20T06:23:32;101649.00;;;17.01;88.75
63090;BME280;49174;43.198;27.824;2023-05-20T06:25:58;101661.97;;;17.05;86.53
63090;BME280;49174;43.198;27.824;2023-05-20T06:28:27;101652.75;;;17.06;86.56
63090;BME280;49174;43.198;27.824;2023-05-20T06:30:53;101652.69;;;17.13;86.12
63090;BME280;49174;43.198;27.824;2023-05-20T06:33:21;101632.13;;;17.17;86.28
63090;BME280;49174;43.198;27.824;2023-05-20T06:35:50;101637.19;;;17.13;86.56
63090;BME280;49174;43.198;27.824;2023-05-20T06:38:16;101640.56;;;17.09;86.06
63090;BME280;49174;43.198;27.824;2023-05-20T06:40:41;101646.19;;;17.14;86.55
63090;BME280;49174;43.198;27.824;2023-05-20T06:43:07;101646.00;;;17.09;85.70
63090;BME280;49174;43.198;27.824;2023-05-20T06:45:32;101643.47;;;17.14;86.46
63090;BME280;49174;43.198;27.824;2023-05-20T06:47:58;101635.19;;;17.27;86.36
63090;BME280;49174;43.198;27.824;2023-05-20T06:50:24;101640.63;;;17.34;85.28
63090;BME280;49174;43.198;27.824;2023-05-20T06:52:50;101645.56;;;17.43;85.71
63090;BME280;49174;43.198;27.824;2023-05-20T06:55:15;101639.72;;;17.40;83.98
63090;BME280;49174;43.198;27.824;2023-05-20T06:57:41;101647.88;;;17.47;83.15
63090;BME280;49174;43.198;27.824;2023-05-20T07:00:07;101649.91;;;17.58;81.71
63090;BME280;49174;43.198;27.824;2023-05-20T07:02:33;101650.47;;;17.67;81.21
63090;BME280;49174;43.198;27.824;2023-05-20T07:04:58;101659.66;;;17.72;81.45
63090;BME280;49174;43.198;27.824;2023-05-20T07:07:24;101658.16;;;17.76;81.37
63090;BME280;49174;43.198;27.824;2023-05-20T07:09:51;101660.88;;;17.76;80.48
63090;BME280;49174;43.198;27.824;2023-05-20T07:12:17;101664.94;;;17.67;80.10
63090;BME280;49174;43.198;27.824;2023-05-20T07:14:43;101666.84;;;17.67;79.87
63090;BME280;49174;43.198;27.824;2023-05-20T07:17:08;101673.06;;;17.74;78.44
63090;BME280;49174;43.198;27.824;2023-05-20T07:19:34;101689.00;;;17.83;78.33
63090;BME280;49174;43.198;27.824;2023-05-20T07:21:59;101688.72;;;17.92;77.58
63090;BME280;49174;43.198;27.824;2023-05-20T07:24:25;101688.22;;;18.01;77.00
63090;BME280;49174;43.198;27.824;2023-05-20T07:26:50;101697.84;;;18.04;77.48
63090;BME280;49174;43.198;27.824;2023-05-20T07:29:17;101708.72;;;18.11;76.54
63090;BME280;49174;43.198;27.824;2023-05-20T07:31:42;101709.44;;;18.24;77.73
63090;BME280;49174;43.198;27.824;2023-05-20T07:34:08;101701.22;;;18.24;71.14
63090;BME280;49174;43.198;27.824;2023-05-20T07:36:35;101698.63;;;18.36;70.21
63090;BME280;49174;43.198;27.824;2023-05-20T07:39:02;101700.50;;;18.36;71.00
63090;BME280;49174;43.198;27.824;2023-05-20T07:41:28;101695.19;;;18.41;70.49
63090;BME280;49174;43.198;27.824;2023-05-20T07:43:53;101700.38;;;18.49;73.33
63090;BME280;49174;43.198;27.824;2023-05-20T07:46:19;101691.13;;;18.50;70.74
63090;BME280;49174;43.198;27.824;2023-05-20T07:48:44;101698.69;;;18.48;72.04
63090;BME280;49174;43.198;27.824;2023-05-20T07:51:10;101703.34;;;18.47;72.47
63090;BME280;49174;43.198;27.824;2023-05-20T07:53:36;101700.19;;;18.44;72.79
63090;BME280;49174;43.198;27.824;2023-05-20T07:56:02;101705.84;;;18.49;73.39
63090;BME280;49174;43.198;27.824;2023-05-20T07:58:27;101703.88;;;18.56;73.53
63090;BME280;49174;43.198;27.824;2023-05-20T08:00:53;101704.72;;;18.57;72.85
63090;BME280;49174;43.198;27.824;2023-05-20T08:03:19;101706.38;;;18.58;73.19
63090;BME280;49174;43.198;27.824;2023-05-20T08:05:46;101711.53;;;18.66;74.21
63090;BME280;49174;43.198;27.824;2023-05-20T08:08:12;101703.13;;;18.67;73.67
63090;BME280;49174;43.198;27.824;2023-05-20T08:10:37;101704.16;;;18.66;73.65
63090;BME280;49174;43.198;27.824;2023-05-20T08:13:03;101708.13;;;18.70;75.30
63090;BME280;49174;43.198;27.824;2023-05-20T08:15:28;101710.22;;;18.75;77.06
63090;BME280;49174;43.198;27.824;2023-05-20T08:17:54;101709.16;;;18.76;77.82
63090;BME280;49174;43.198;27.824;2023-05-20T08:20:20;101707.25;;;18.77;79.52
63090;BME280;49174;43.198;27.824;2023-05-20T08:22:45;101719.47;;;18.74;78.69
63090;BME280;49174;43.198;27.824;2023-05-20T08:25:11;101710.25;;;18.68;79.70
63090;BME280;49174;43.198;27.824;2023-05-20T08:27:37;101723.31;;;18.66;79.82
63090;BME280;49174;43.198;27.824;2023-05-20T08:30:04;101720.56;;;18.66;81.07
63090;BME280;49174;43.198;27.824;2023-05-20T08:32:31;101716.41;;;18.64;80.52
63090;BME280;49174;43.198;27.824;2023-05-20T08:34:56;101721.88;;;18.64;82.05
63090;BME280;49174;43.198;27.824;2023-05-20T08:37:22;101716.84;;;18.61;82.90
63090;BME280;49174;43.198;27.824;2023-05-20T08:39:47;101717.91;;;18.60;83.19
63090;BME280;49174;43.198;27.824;2023-05-20T08:42:14;101723.38;;;18.60;81.74
63090;BME280;49174;43.198;27.824;2023-05-20T08:44:41;101712.25;;;18.61;85.83
63090;BME280;49174;43.198;27.824;2023-05-20T08:47:07;101707.81;;;18.60;84.26
63090;BME280;49174;43.198;27.824;2023-05-20T08:49:34;101708.63;;;18.61;84.16
63090;BME280;49174;43.198;27.824;2023-05-20T08:52:00;101711.25;;;18.56;84.50
63090;BME280;49174;43.198;27.824;2023-05-20T08:54:36;101710.63;;;18.53;83.83
63090;BME280;49174;43.198;27.824;2023-05-20T08:57:07;101718.38;;;18.57;86.17
63090;BME280;49174;43.198;27.824;2023-05-20T08:59:33;101714.81;;;18.56;85.65
63090;BME280;49174;43.198;27.824;2023-05-20T09:01:59;101708.28;;;18.57;86.98
63090;BME280;49174;43.198;27.824;2023-05-20T09:04:24;101714.56;;;18.58;85.93
63090;BME280;49174;43.198;27.824;2023-05-20T09:06:50;101711.63;;;18.59;88.23
63090;BME280;49174;43.198;27.824;2023-05-20T09:09:15;101705.91;;;18.61;89.27
63090;BME280;49174;43.198;27.824;2023-05-20T09:11:41;101707.59;;;18.62;89.32
63090;BME280;49174;43.198;27.824;2023-05-20T09:14:07;101705.31;;;18.59;87.87
63090;BME280;49174;43.198;27.824;2023-05-20T09:16:33;101696.88;;;18.60;87.48
63090;BME280;49174;43.198;27.824;2023-05-20T09:18:58;101693.25;;;18.48;85.63
63090;BME280;49174;43.198;27.824;2023-05-20T09:21:28;101694.16;;;18.42;85.03
63090;BME280;49174;43.198;27.824;2023-05-20T09:23:54;101689.88;;;18.46;85.32
63090;BME280;49174;43.198;27.824;2023-05-20T09:26:22;101689.44;;;18.49;84.90
63090;BME280;49174;43.198;27.824;2023-05-20T09:28:49;101693.53;;;18.58;85.67
63090;BME280;49174;43.198;27.824;2023-05-20T09:31:15;101689.75;;;18.59;84.58
63090;BME280;49174;43.198;27.824;2023-05-20T09:33:41;101695.38;;;18.64;84.82
63090;BME280;49174;43.198;27.824;2023-05-20T09:36:07;101691.94;;;18.69;84.33
63090;BME280;49174;43.198;27.824;2023-05-20T09:38:35;101682.44;;;18.71;85.28
63090;BME280;49174;43.198;27.824;2023-05-20T09:41:06;101676.41;;;18.69;84.41
63090;BME280;49174;43.198;27.824;2023-05-20T09:43:33;101674.09;;;18.66;84.90
63090;BME280;49174;43.198;27.824;2023-05-20T09:45:59;101675.00;;;18.60;85.03
63090;BME280;49174;43.198;27.824;2023-05-20T09:48:26;101669.03;;;18.70;86.14
63090;BME280;49174;43.198;27.824;2023-05-20T09:50:53;101664.25;;;18.65;84.91
63090;BME280;49174;43.198;27.824;2023-05-20T09:53:20;101656.88;;;18.66;86.15
63090;BME280;49174;43.198;27.824;2023-05-20T09:55:47;101661.41;;;18.72;86.04
63090;BME280;49174;43.198;27.824;2023-05-20T09:58:14;101656.75;;;18.79;84.91
63090;BME280;49174;43.198;27.824;2023-05-20T10:00:40;101649.06;;;18.88;86.51
63090;BME280;49174;43.198;27.824;2023-05-20T10:03:06;101644.81;;;18.92;84.29
63090;BME280;49174;43.198;27.824;2023-05-20T10:05:36;101642.19;;;18.97;84.80
63090;BME280;49174;43.198;27.824;2023-05-20T10:08:21;101635.69;;;18.98;84.17
63090;BME280;49174;43.198;27.824;2023-05-20T10:10:53;101636.88;;;19.02;84.45
63090;BME280;49174;43.198;27.824;2023-05-20T10:16:43;101641.69;;;19.18;86.32
63090;BME280;49174;43.198;27.824;2023-05-20T10:22:07;101629.69;;;19.61;87.90
63090;BME280;49174;43.198;27.824;2023-05-20T10:24:59;101624.25;;;19.85;85.67
63090;BME280;49174;43.198;27.824;2023-05-20T10:27:25;101622.72;;;20.13;85.51
63090;BME280;49174;43.198;27.824;2023-05-20T10:29:53;101607.22;;;20.53;84.25
63090;BME280;49174;43.198;27.824;2023-05-20T10:32:30;101608.75;;;20.90;83.33
63090;BME280;49174;43.198;27.824;2023-05-20T10:35:04;101605.31;;;21.40;79.60
63090;BME280;49174;43.198;27.824;2023-05-20T10:37:40;101591.44;;;22.02;78.47
63090;BME280;49174;43.198;27.824;2023-05-20T10:40:07;101586.09;;;22.51;76.05
63090;BME280;49174;43.198;27.824;2023-05-20T10:42:33;101581.66;;;22.72;76.00
63090;BME280;49174;43.198;27.824;2023-05-20T10:44:58;101581.91;;;23.20;76.25
63090;BME280;49174;43.198;27.824;2023-05-20T10:47:24;101578.72;;;23.66;73.35
63090;BME280;49174;43.198;27.824;2023-05-20T10:49:50;101586.50;;;24.16;67.00
63090;BME280;49174;43.198;27.824;2023-05-20T10:52:16;101567.94;;;24.59;65.95
63090;BME280;49174;43.198;27.824;2023-05-20T10:54:44;101564.72;;;24.98;61.96
63090;BME280;49174;43.198;27.824;2023-05-20T10:57:10;101563.97;;;25.44;63.52
63090;BME280;49174;43.198;27.824;2023-05-20T10:59:36;101576.69;;;25.85;57.32
63090;BME280;49174;43.198;27.824;2023-05-20T11:02:03;101546.78;;;25.93;48.61
63090;BME280;49174;43.198;27.824;2023-05-20T11:04:29;101549.53;;;26.03;47.01
63090;BME280;49174;43.198;27.824;2023-05-20T11:06:55;101534.47;;;26.29;46.91
63090;BME280;49174;43.198;27.824;2023-05-20T11:09:21;101527.19;;;26.59;42.06
63090;BME280;49174;43.198;27.824;2023-05-20T11:11:48;101527.22;;;26.93;41.61
63090;BME280;49174;43.198;27.824;2023-05-20T11:14:14;101525.41;;;27.18;40.65
63090;BME280;49174;43.198;27.824;2023-05-20T11:16:42;101518.81;;;27.43;39.30
63090;BME280;49174;43.198;27.824;2023-05-20T11:19:13;101524.22;;;27.58;39.98
63090;BME280;49174;43.198;27.824;2023-05-20T11:21:46;101520.72;;;27.48;36.58
63090;BME280;49174;43.198;27.824;2023-05-20T11:24:12;101514.63;;;27.11;36.74
63090;BME280;49174;43.198;27.824;2023-05-20T11:26:38;101514.44;;;27.03;37.59
63090;BME280;49174;43.198;27.824;2023-05-20T11:29:04;101503.44;;;27.27;37.42
63090;BME280;49174;43.198;27.824;2023-05-20T11:31:30;101509.28;;;27.54;37.47
63090;BME280;49174;43.198;27.824;2023-05-20T11:33:58;101514.28;;;27.81;37.51
63090;BME280;49174;43.198;27.824;2023-05-20T11:36:29;101505.63;;;27.59;37.71
63090;BME280;49174;43.198;27.824;2023-05-20T11:38:58;101513.28;;;26.69;39.34
63090;BME280;49174;43.198;27.824;2023-05-20T11:41:27;101509.13;;;26.02;40.62
63090;BME280;49174;43.198;27.824;2023-05-20T11:43:56;101509.56;;;25.34;42.06
63090;BME280;49174;43.198;27.824;2023-05-20T11:46:22;101499.63;;;25.23;43.89
63090;BME280;49174;43.198;27.824;2023-05-20T11:48:55;101499.31;;;25.14;42.76
63090;BME280;49174;43.198;27.824;2023-05-20T11:51:26;101501.56;;;25.22;44.55
63090;BME280;49174;43.198;27.824;2023-05-20T11:53:52;101503.16;;;24.92;44.77
63090;BME280;49174;43.198;27.824;2023-05-20T11:56:19;101493.75;;;24.68;46.50
63090;BME280;49174;43.198;27.824;2023-05-20T11:58:45;101498.47;;;24.78;46.05
63090;BME280;49174;43.198;27.824;2023-05-20T12:01:11;101491.28;;;24.66;47.24
63090;BME280;49174;43.198;27.824;2023-05-20T12:03:36;101489.63;;;24.81;45.91
63090;BME280;49174;43.198;27.824;2023-05-20T12:06:03;101485.22;;;24.85;47.19
63090;BME280;49174;43.198;27.824;2023-05-20T12:08:29;101493.81;;;24.93;46.53
63090;BME280;49174;43.198;27.824;2023-05-20T12:10:54;101482.69;;;24.47;49.07
63090;BME280;49174;43.198;27.824;2023-05-20T12:13:20;101488.13;;;24.37;48.94
63090;BME280;49174;43.198;27.824;2023-05-20T12:15:47;101496.75;;;24.51;49.13
63090;BME280;49174;43.198;27.824;2023-05-20T12:18:13;101488.22;;;24.68;48.83
63090;BME280;49174;43.198;27.824;2023-05-20T12:20:38;101486.06;;;24.80;47.71
63090;BME280;49174;43.198;27.824;2023-05-20T12:23:04;101476.09;;;24.84;47.29
63090;BME280;49174;43.198;27.824;2023-05-20T12:25:29;101481.63;;;24.89;47.50
63090;BME280;49174;43.198;27.824;2023-05-20T12:27:55;101485.25;;;25.31;47.04
63090;BME280;49174;43.198;27.824;2023-05-20T12:30:21;101476.63;;;25.63;44.95
63090;BME280;49174;43.198;27.824;2023-05-20T12:32:48;101476.59;;;25.68;45.34
63090;BME280;49174;43.198;27.824;2023-05-20T12:35:15;101478.09;;;25.25;46.13
63090;BME280;49174;43.198;27.824;2023-05-20T12:37:43;101475.03;;;25.06;45.05
63090;BME280;49174;43.198;27.824;2023-05-20T12:40:10;101470.63;;;25.15;45.34
63090;BME280;49174;43.198;27.824;2023-05-20T12:42:40;101459.56;;;24.74;45.82